createdAt,value
2023-05-10T00:02:17.255Z,100979.28
2023-05-10T00:04:45.243Z,100979.55
2023-05-10T00:07:13.172Z,100979.09
2023-05-10T00:09:41.144Z,100979.45
2023-05-10T00:12:09.166Z,100990.10
2023-05-10T00:14:37.684Z,100979.35
2023-05-10T00:17:05.665Z,100976.50
2023-05-10T00:19:33.621Z,100968.36
2023-05-10T00:22:01.510Z,100969.54
2023-05-10T00:24:29.612Z,100967.38
2023-05-10T00:26:57.602Z,100968.95
2023-05-10T00:29:25.662Z,100975.85
2023-05-10T00:31:53.767Z,100982.32
2023-05-10T00:34:21.698Z,100972.05
2023-05-10T00:36:49.715Z,100974.05
2023-05-10T00:39:17.615Z,100978.53
2023-05-10T00:41:45.578Z,100978.04
2023-05-10T00:44:13.649Z,100984.16
2023-05-10T00:46:41.623Z,100984.35
2023-05-10T00:49:09.592Z,100978.47
2023-05-10T00:51:37.626Z,100983.41
2023-05-10T00:54:05.749Z,100980.98
2023-05-10T00:56:33.733Z,100978.95
2023-05-10T00:59:02.004Z,100985.82
2023-05-10T01:01:30.468Z,100982.72
2023-05-10T01:03:58.460Z,100985.13
2023-05-10T01:06:26.430Z,100989.48
2023-05-10T01:08:54.413Z,100998.09
2023-05-10T01:11:23.294Z,101000.47
2023-05-10T01:13:55.151Z,101001.22
2023-05-10T01:16:23.243Z,101007.44
2023-05-10T01:18:51.392Z,101006.13
2023-05-10T01:21:44.201Z,101013.91
2023-05-10T01:24:34.716Z,101014.62
2023-05-10T01:27:17.994Z,101003.51
2023-05-10T01:30:15.341Z,101018.23
2023-05-10T01:32:58.791Z,101021.82
2023-05-10T01:35:34.308Z,101018.48
2023-05-10T01:38:10.141Z,101025.52
2023-05-10T01:40:51.087Z,101021.46
2023-05-10T01:43:25.529Z,101029.24
2023-05-10T01:46:00.375Z,101031.27
2023-05-10T01:48:29.587Z,101031.63
2023-05-10T01:50:57.644Z,101037.35
2023-05-10T01:53:25.632Z,101032.94
2023-05-10T01:55:54.824Z,101036.99
2023-05-10T01:58:25.281Z,101047.65
2023-05-10T02:00:53.424Z,101045.23
2023-05-10T02:03:26.122Z,101053.83
2023-05-10T02:05:54.730Z,101051.34
2023-05-10T02:08:22.776Z,101057.52
2023-05-10T02:10:51.526Z,101061.28
2023-05-10T02:13:19.851Z,101045.62
2023-05-10T02:15:50.076Z,101053.50
2023-05-10T02:18:18.362Z,101054.32
2023-05-10T02:20:47.792Z,101058.87
2023-05-10T02:23:16.158Z,101057.69
2023-05-10T02:25:44.308Z,101062.46
2023-05-10T02:28:12.310Z,101059.23
2023-05-10T02:30:40.350Z,101057.91
2023-05-10T02:33:08.310Z,101063.28
2023-05-10T02:35:36.349Z,101067.01
2023-05-10T02:38:04.378Z,101071.06
2023-05-10T02:40:32.322Z,101066.16
2023-05-10T02:43:01.102Z,101054.68
2023-05-10T02:45:31.027Z,101065.30
2023-05-10T02:47:59.233Z,101064.85
2023-05-10T02:50:29.725Z,101060.80
2023-05-10T02:53:02.167Z,101062.46
2023-05-10T02:55:34.789Z,101062.10
2023-05-10T02:58:03.949Z,101075.25
2023-05-10T03:00:31.972Z,101073.58
2023-05-10T03:03:00.122Z,101072.01
2023-05-10T03:05:28.131Z,101067.10
2023-05-10T03:07:56.043Z,101069.16
2023-05-10T03:10:26.527Z,101068.77
2023-05-10T03:13:06.738Z,101067.46
2023-05-10T03:15:51.043Z,101064.13
2023-05-10T03:18:23.745Z,101071.78
2023-05-10T03:20:58.346Z,101064.62
2023-05-10T03:23:30.297Z,101068.48
2023-05-10T03:25:58.308Z,101075.38
2023-05-10T03:28:26.463Z,101072.99
2023-05-10T03:30:55.144Z,101070.11
2023-05-10T03:33:23.106Z,101074.56
2023-05-10T03:35:50.993Z,101067.59
2023-05-10T03:38:18.932Z,101070.96
2023-05-10T03:40:46.850Z,101065.11
2023-05-10T03:43:14.849Z,101070.11
2023-05-10T03:45:42.798Z,101069.75
2023-05-10T03:48:10.853Z,101068.91
2023-05-10T03:50:38.868Z,101075.02
2023-05-10T03:53:06.805Z,101073.80
2023-05-10T03:55:36.848Z,101074.30
2023-05-10T03:58:04.855Z,101073.48
2023-05-10T04:00:33.360Z,101075.87
2023-05-10T04:03:01.420Z,101073.80
2023-05-10T04:05:29.502Z,101073.35
2023-05-10T04:07:57.486Z,101075.87
2023-05-10T04:10:25.487Z,101086.49
2023-05-10T04:12:53.526Z,101086.13
2023-05-10T04:15:21.778Z,101088.16
2023-05-10T04:17:49.913Z,101087.34
2023-05-10T04:20:18.266Z,101089.83
2023-05-10T04:22:46.412Z,101086.95
2023-05-10T04:25:14.503Z,101085.28
2023-05-10T04:27:42.464Z,101086.49
2023-05-10T04:30:11.250Z,101091.04
2023-05-10T04:32:39.420Z,101096.27
2023-05-10T04:35:07.990Z,101095.13
2023-05-10T04:37:35.899Z,101093.55
2023-05-10T04:40:04.434Z,101095.55
2023-05-10T04:42:32.372Z,101097.25
2023-05-10T04:45:00.334Z,101099.73
2023-05-10T04:47:28.258Z,101094.51
2023-05-10T04:49:56.329Z,101097.71
2023-05-10T04:52:24.441Z,101096.99
2023-05-10T04:54:53.224Z,101089.57
2023-05-10T04:57:21.244Z,101091.23
2023-05-10T04:59:50.471Z,101094.11
2023-05-10T05:02:18.674Z,101101.17
2023-05-10T05:04:46.643Z,101096.23
2023-05-10T05:07:14.707Z,101103.70
2023-05-10T05:09:42.745Z,101100.81
2023-05-10T05:12:10.981Z,101102.48
2023-05-10T05:14:38.976Z,101101.63
2023-05-10T05:17:07.246Z,101104.15
2023-05-10T05:19:35.258Z,101099.24
2023-05-10T05:22:03.224Z,101104.28
2023-05-10T05:24:31.195Z,101101.41
2023-05-10T05:26:59.161Z,101108.79
2023-05-10T05:29:27.072Z,101111.67
2023-05-10T05:31:55.607Z,101118.73
2023-05-10T05:34:24.476Z,101121.12
2023-05-10T05:36:52.464Z,101119.78
2023-05-10T05:39:20.462Z,101124.36
2023-05-10T05:41:48.733Z,101126.02
2023-05-10T05:44:16.740Z,101129.72
2023-05-10T05:46:44.759Z,101134.63
2023-05-10T05:49:12.730Z,101134.63
2023-05-10T05:51:40.709Z,101134.98
2023-05-10T05:54:08.696Z,101138.58
2023-05-10T05:56:36.686Z,101136.20
2023-05-10T05:59:04.728Z,101132.95
2023-05-10T06:01:32.752Z,101147.77
2023-05-10T06:04:00.897Z,101144.07
2023-05-10T06:06:29.409Z,101146.95
2023-05-10T06:08:57.443Z,101140.38
2023-05-10T06:11:25.478Z,101148.59
2023-05-10T06:13:53.538Z,101150.74
2023-05-10T06:16:21.581Z,101150.74
2023-05-10T06:18:49.682Z,101152.77
2023-05-10T06:21:18.461Z,101159.73
2023-05-10T06:23:46.548Z,101160.06
2023-05-10T06:26:14.774Z,101165.81
2023-05-10T06:28:43.140Z,101165.00
2023-05-10T06:31:11.250Z,101168.82
2023-05-10T06:33:39.359Z,101175.00
2023-05-10T06:36:07.726Z,101174.67
2023-05-10T06:38:35.743Z,101177.16
2023-05-10T06:41:03.732Z,101181.73
2023-05-10T06:43:31.809Z,101182.55
2023-05-10T06:46:00.008Z,101187.55
2023-05-10T06:48:28.030Z,101193.31
2023-05-10T06:50:56.166Z,101196.29
2023-05-10T06:53:24.248Z,101193.41
2023-05-10T06:55:52.610Z,101200.08
2023-05-10T06:58:20.604Z,101199.27
2023-05-10T07:00:49.665Z,101199.75
2023-05-10T07:03:18.236Z,101200.57
2023-05-10T07:05:46.265Z,101203.80
2023-05-10T07:08:14.305Z,101196.16
2023-05-10T07:10:42.271Z,101203.91
2023-05-10T07:13:10.530Z,101200.93
2023-05-10T07:15:38.640Z,101198.19
2023-05-10T07:18:08.825Z,101207.30
2023-05-10T07:20:36.886Z,101203.16
2023-05-10T07:23:04.850Z,101210.51
2023-05-10T07:25:33.099Z,101209.20
2023-05-10T07:28:01.056Z,101206.98
2023-05-10T07:30:29.191Z,101209.10
2023-05-10T07:32:57.390Z,101208.88
2023-05-10T07:35:25.312Z,101209.53
2023-05-10T07:37:53.360Z,101211.10
2023-05-10T07:40:21.540Z,101212.67
2023-05-10T07:42:49.490Z,101215.05
2023-05-10T07:45:17.663Z,101217.93
2023-05-10T07:47:46.002Z,101214.96
2023-05-10T07:50:14.042Z,101215.77
2023-05-10T07:52:42.090Z,101210.61
2023-05-10T07:55:10.657Z,101206.81
2023-05-10T07:57:38.790Z,101213.98
2023-05-10T08:00:07.394Z,101211.91
2023-05-10T08:02:38.167Z,101222.48
2023-05-10T08:05:07.664Z,101208.84
2023-05-10T08:07:36.139Z,101216.36
2023-05-10T08:10:05.059Z,101213.13
2023-05-10T08:12:33.028Z,101221.04
2023-05-10T08:15:00.997Z,101218.59
2023-05-10T08:17:29.066Z,101221.20
2023-05-10T08:19:57.070Z,101218.72
2023-05-10T08:22:25.176Z,101223.27
2023-05-10T08:24:53.208Z,101228.92
2023-05-10T08:27:21.194Z,101225.62
2023-05-10T08:29:50.629Z,101237.06
2023-05-10T08:32:19.300Z,101228.72
2023-05-10T08:34:47.284Z,101230.45
2023-05-10T08:37:15.458Z,101224.80
2023-05-10T08:39:43.550Z,101230.29
2023-05-10T08:42:11.751Z,101224.73
2023-05-10T08:44:39.848Z,101226.95
2023-05-10T08:47:11.202Z,101232.62
2023-05-10T08:49:39.305Z,101230.45
2023-05-10T08:52:08.073Z,101232.41
2023-05-10T08:54:36.629Z,101235.39
2023-05-10T08:57:05.007Z,101229.73
2023-05-10T08:59:33.267Z,101230.65
2023-05-10T09:02:02.140Z,101233.53
2023-05-10T09:04:30.850Z,101226.76
2023-05-10T09:06:59.442Z,101228.66
2023-05-10T09:09:27.685Z,101229.48
2023-05-10T09:11:56.122Z,101228.07
2023-05-10T09:14:24.197Z,101233.37
2023-05-10T09:16:52.357Z,101229.57
2023-05-10T09:19:20.722Z,101231.70
2023-05-10T09:21:48.906Z,101229.64
2023-05-10T09:24:17.224Z,101236.60
2023-05-10T09:26:50.316Z,101233.73
2023-05-10T09:29:18.747Z,101231.41
2023-05-10T09:31:48.913Z,101237.26
2023-05-10T09:34:21.495Z,101239.58
2023-05-10T09:37:07.676Z,101229.57
2023-05-10T09:39:36.656Z,101231.60
2023-05-10T09:42:11.655Z,101228.04
2023-05-10T09:44:40.777Z,101233.63
2023-05-10T09:47:09.009Z,101229.80
2023-05-10T09:49:37.467Z,101232.45
2023-05-10T09:52:09.969Z,101235.10
2023-05-10T09:54:38.798Z,101229.48
2023-05-10T09:57:07.476Z,101227.71
2023-05-10T09:59:37.227Z,101228.88
2023-05-10T10:02:05.578Z,101233.23
2023-05-10T10:04:34.074Z,101236.21
2023-05-10T10:07:05.778Z,101242.32
2023-05-10T10:09:34.654Z,101238.95
2023-05-10T10:12:04.535Z,101235.59
2023-05-10T10:14:32.726Z,101257.13
2023-05-10T10:17:08.259Z,101244.61
2023-05-10T10:19:38.207Z,101233.23
2023-05-10T10:22:07.067Z,101236.96
2023-05-10T10:24:35.616Z,101240.79
2023-05-10T10:27:24.580Z,101248.50
2023-05-10T10:29:55.863Z,101246.73
2023-05-10T10:32:56.871Z,101249.55
2023-05-10T10:35:25.521Z,101246.05
2023-05-10T10:37:53.888Z,101248.63
2023-05-10T10:40:29.174Z,101243.73
2023-05-10T10:42:58.056Z,101250.43
2023-05-10T10:45:26.891Z,101242.55
2023-05-10T10:48:26.019Z,101251.45
2023-05-10T10:51:00.707Z,101248.80
2023-05-10T10:53:30.949Z,101247.82
2023-05-10T10:56:12.809Z,101238.30
2023-05-10T10:58:41.126Z,101244.94
2023-05-10T11:01:20.585Z,101249.09
2023-05-10T11:04:01.215Z,101242.81
2023-05-10T11:06:36.806Z,101247.42
2023-05-10T11:09:12.531Z,101249.09
2023-05-10T11:11:57.720Z,101245.59
2023-05-10T11:14:25.927Z,101234.05
2023-05-10T11:16:54.425Z,101235.42
2023-05-10T11:19:22.725Z,101235.42
2023-05-10T11:22:08.130Z,101238.95
2023-05-10T11:24:36.227Z,101241.93
2023-05-10T11:27:04.651Z,101251.25
2023-05-10T11:29:32.956Z,101248.63
2023-05-10T11:32:01.348Z,101254.00
2023-05-10T11:34:32.580Z,101248.63
2023-05-10T11:37:00.886Z,101254.29
2023-05-10T11:39:30.110Z,101261.65
2023-05-10T11:41:58.715Z,101260.08
2023-05-10T11:44:32.583Z,101255.89
2023-05-10T11:47:02.614Z,101266.59
2023-05-10T11:49:30.868Z,101262.01
2023-05-10T11:52:19.522Z,101268.45
2023-05-10T11:54:57.436Z,101267.77
2023-05-10T11:57:28.759Z,101265.38
2023-05-10T11:59:57.700Z,101257.66
2023-05-10T12:02:26.005Z,101260.05
2023-05-10T12:04:54.468Z,101264.07
2023-05-10T12:07:22.637Z,101265.80
2023-05-10T12:10:10.748Z,101261.09
2023-05-10T12:12:49.936Z,101264.82
2023-05-10T12:15:25.389Z,101255.34
2023-05-10T12:17:53.776Z,101249.71
2023-05-10T12:20:26.367Z,101250.53
2023-05-10T12:23:00.505Z,101253.93
2023-05-10T12:25:35.688Z,101250.89
2023-05-10T12:28:06.623Z,101250.20
2023-05-10T12:30:35.607Z,101249.71
2023-05-10T12:33:14.476Z,101254.48
2023-05-10T12:35:53.130Z,101248.87
2023-05-10T12:38:33.959Z,101256.38
2023-05-10T12:41:02.935Z,101260.24
2023-05-10T12:43:31.109Z,101256.22
2023-05-10T12:45:59.501Z,101258.34
2023-05-10T12:48:27.967Z,101260.02
2023-05-10T12:50:56.289Z,101265.02
2023-05-10T12:53:24.481Z,101259.26
2023-05-10T12:55:52.538Z,101263.94
2023-05-10T12:58:34.442Z,101262.27
2023-05-10T13:01:03.815Z,101261.16
2023-05-10T13:03:32.150Z,101259.66
2023-05-10T13:06:00.791Z,101257.27
2023-05-10T13:08:29.096Z,101250.73
2023-05-10T13:10:57.306Z,101262.43
2023-05-10T13:13:25.446Z,101255.04
2023-05-10T13:15:53.754Z,101254.72
2023-05-10T13:18:22.411Z,101253.12
2023-05-10T13:20:52.134Z,101263.38
2023-05-10T13:23:20.402Z,101258.45
2023-05-10T13:25:48.564Z,101250.63
2023-05-10T13:28:16.853Z,101248.24
2023-05-10T13:30:45.544Z,101246.22
2023-05-10T13:33:14.392Z,101251.64
2023-05-10T13:35:43.025Z,101247.30
2023-05-10T13:38:12.230Z,101247.82
2023-05-10T13:40:43.572Z,101246.12
2023-05-10T13:43:12.169Z,101239.25
2023-05-10T13:45:41.458Z,101249.71
2023-05-10T13:48:09.929Z,101238.23
2023-05-10T13:50:38.320Z,101239.12
2023-05-10T13:53:07.111Z,101232.16
2023-05-10T13:55:36.084Z,101244.52
2023-05-10T13:58:04.252Z,101237.59
2023-05-10T14:00:33.247Z,101239.67
2023-05-10T14:03:01.735Z,101234.38
2023-05-10T14:05:30.038Z,101231.37
2023-05-10T14:07:58.620Z,101237.16
2023-05-10T14:10:26.960Z,101230.91
2023-05-10T14:12:55.302Z,101231.27
2023-05-10T14:15:23.631Z,101223.85
2023-05-10T14:17:51.819Z,101223.03
2023-05-10T14:20:20.102Z,101227.52
2023-05-10T14:22:48.305Z,101225.88
2023-05-10T14:25:17.137Z,101231.63
2023-05-10T14:27:45.523Z,101228.30
2023-05-10T14:30:14.354Z,101221.23
2023-05-10T14:32:42.585Z,101223.59
2023-05-10T14:35:13.129Z,101219.47
2023-05-10T14:37:41.858Z,101223.95
2023-05-10T14:40:11.850Z,101222.67
2023-05-10T14:42:39.987Z,101222.22
2023-05-10T14:45:08.492Z,101222.09
2023-05-10T14:47:36.641Z,101222.87
2023-05-10T14:50:04.869Z,101223.98
2023-05-10T14:52:34.443Z,101227.97
2023-05-10T14:55:03.734Z,101230.39
2023-05-10T14:57:32.127Z,101228.66
2023-05-10T15:00:00.570Z,101229.48
2023-05-10T15:02:29.418Z,101230.69
2023-05-10T15:04:58.410Z,101231.53
2023-05-10T15:07:26.964Z,101233.07
2023-05-10T15:09:55.614Z,101242.09
2023-05-10T15:12:23.780Z,101231.70
2023-05-10T15:14:51.993Z,101230.48
2023-05-10T15:17:20.299Z,101230.85
2023-05-10T15:19:48.314Z,101231.30
2023-05-10T15:22:16.497Z,101227.16
2023-05-10T15:24:55.878Z,101229.60
2023-05-10T15:27:28.835Z,101227.48
2023-05-10T15:29:57.751Z,101233.59
2023-05-10T15:32:26.230Z,101235.13
2023-05-10T15:34:54.538Z,101235.59
2023-05-10T15:37:23.648Z,101242.65
2023-05-10T15:39:52.231Z,101244.84
2023-05-10T15:42:20.486Z,101244.71
2023-05-10T15:44:52.444Z,101242.59
2023-05-10T15:47:20.549Z,101252.33
2023-05-10T15:49:48.823Z,101248.08
2023-05-10T15:52:17.300Z,101239.28
2023-05-10T15:54:45.337Z,101248.47
2023-05-10T15:57:13.501Z,101244.38
2023-05-10T15:59:41.572Z,101251.52
2023-05-10T16:02:10.642Z,101241.28
2023-05-10T16:04:39.244Z,101244.16
2023-05-10T16:07:07.346Z,101246.15
2023-05-10T16:09:35.367Z,101247.88
2023-05-10T16:12:04.042Z,101245.46
2023-05-10T16:14:32.183Z,101247.52
2023-05-10T16:17:00.403Z,101247.72
2023-05-10T16:19:30.157Z,101250.20
2023-05-10T16:21:58.337Z,101241.96
2023-05-10T16:24:27.244Z,101252.27
2023-05-10T16:26:55.244Z,101258.51
2023-05-10T16:29:23.248Z,101259.26
2023-05-10T16:31:51.284Z,101261.68
2023-05-10T16:34:19.361Z,101266.52
2023-05-10T16:36:47.384Z,101261.52
2023-05-10T16:39:15.543Z,101270.61
2023-05-10T16:41:43.656Z,101273.38
2023-05-10T16:44:11.784Z,101275.94
2023-05-10T16:46:39.972Z,101268.58
2023-05-10T16:49:08.227Z,101267.60
2023-05-10T16:51:36.253Z,101267.96
2023-05-10T16:54:04.306Z,101275.48
2023-05-10T16:56:32.344Z,101274.59
2023-05-10T16:59:00.356Z,101276.98
2023-05-10T17:01:28.364Z,101270.93
2023-05-10T17:03:56.817Z,101273.65
2023-05-10T17:06:25.088Z,101278.84
2023-05-10T17:08:53.490Z,101268.97
2023-05-10T17:11:23.279Z,101274.76
2023-05-10T17:13:53.370Z,101281.63
2023-05-10T17:16:22.307Z,101276.63
2023-05-10T17:18:50.366Z,101275.22
2023-05-10T17:21:18.514Z,101274.40
2023-05-10T17:23:46.418Z,101279.34
2023-05-10T17:26:14.421Z,101277.73
2023-05-10T17:28:42.444Z,101270.31
2023-05-10T17:31:10.627Z,101275.97
2023-05-10T17:33:38.935Z,101273.35
2023-05-10T17:36:07.050Z,101273.94
2023-05-10T17:38:34.993Z,101270.87
2023-05-10T17:41:03.526Z,101273.02
2023-05-10T17:43:31.469Z,101285.62
2023-05-10T17:45:59.628Z,101274.86
2023-05-10T17:48:28.226Z,101272.24
2023-05-10T17:50:56.322Z,101278.29
2023-05-10T17:53:24.478Z,101284.37
2023-05-10T17:55:53.157Z,101285.41
2023-05-10T17:58:21.178Z,101287.61
2023-05-10T18:00:49.298Z,101291.70
2023-05-10T18:03:17.802Z,101282.48
2023-05-10T18:05:47.104Z,101284.99
2023-05-10T18:08:15.375Z,101288.13
2023-05-10T18:10:43.533Z,101290.42
2023-05-10T18:13:11.638Z,101287.12
2023-05-10T18:15:39.648Z,101290.71
2023-05-10T18:18:08.411Z,101282.34
2023-05-10T18:20:36.548Z,101281.88
2023-05-10T18:23:04.696Z,101284.21
2023-05-10T18:25:32.784Z,101286.92
2023-05-10T18:28:00.809Z,101299.15
2023-05-10T18:30:29.183Z,101296.70
2023-05-10T18:32:57.550Z,101305.10
2023-05-10T18:35:25.582Z,101307.00
2023-05-10T18:37:53.939Z,101321.87
2023-05-10T18:40:22.297Z,101326.19
2023-05-10T18:42:51.605Z,101339.59
2023-05-10T18:45:19.824Z,101344.47
2023-05-10T18:47:48.105Z,101353.06
2023-05-10T18:50:18.415Z,101353.33
2023-05-10T18:52:46.912Z,101351.56
2023-05-10T18:55:15.215Z,101355.39
2023-05-10T18:57:43.871Z,101353.06
2023-05-10T19:00:13.592Z,101338.38
2023-05-10T19:02:41.896Z,101342.47
2023-05-10T19:05:10.811Z,101338.29
2023-05-10T19:07:38.934Z,101338.29
2023-05-10T19:10:07.680Z,101347.21
2023-05-10T19:12:35.987Z,101338.16
2023-05-10T19:15:04.099Z,101345.64
2023-05-10T19:17:32.157Z,101342.27
2023-05-10T19:20:02.691Z,101339.40
2023-05-10T19:22:47.207Z,101350.55
2023-05-10T19:25:19.650Z,101352.22
2023-05-10T19:27:47.973Z,101345.64
2023-05-10T19:30:16.078Z,101360.20
2023-05-10T19:32:45.552Z,101356.01
2023-05-10T19:35:15.914Z,101362.58
2023-05-10T19:37:48.531Z,101358.73
2023-05-10T19:40:17.492Z,101366.87
2023-05-10T19:42:45.686Z,101369.35
2023-05-10T19:45:13.856Z,101369.74
2023-05-10T19:47:43.303Z,101370.56
2023-05-10T19:50:11.796Z,101365.66
2023-05-10T19:52:39.888Z,101371.28
2023-05-10T19:55:08.652Z,101371.96
2023-05-10T19:57:36.686Z,101362.55
2023-05-10T20:00:06.211Z,101364.58
2023-05-10T20:02:34.377Z,101367.45
2023-05-10T20:05:02.370Z,101371.84
2023-05-10T20:07:30.484Z,101367.65
2023-05-10T20:09:58.489Z,101372.55
2023-05-10T20:12:26.549Z,101369.31
2023-05-10T20:14:54.564Z,101378.41
2023-05-10T20:17:22.599Z,101375.89
2023-05-10T20:19:50.572Z,101375.04
2023-05-10T20:22:18.644Z,101366.11
2023-05-10T20:24:46.869Z,101381.61
2023-05-10T20:27:14.854Z,101373.01
2023-05-10T20:29:42.945Z,101381.61
2023-05-10T20:32:10.980Z,101377.46
2023-05-10T20:34:38.996Z,101377.30
2023-05-10T20:37:07.269Z,101376.45
2023-05-10T20:39:35.280Z,101380.86
2023-05-10T20:42:03.324Z,101382.55
2023-05-10T20:44:31.297Z,101383.38
2023-05-10T20:46:59.371Z,101376.80
2023-05-10T20:49:27.488Z,101366.51
2023-05-10T20:51:55.920Z,101367.39
2023-05-10T20:54:25.736Z,101371.41
2023-05-10T20:56:53.765Z,101368.92
2023-05-10T20:59:22.726Z,101367.23
2023-05-10T21:01:50.830Z,101371.41
2023-05-10T21:04:18.937Z,101365.69
2023-05-10T21:06:47.103Z,101371.77
2023-05-10T21:09:15.108Z,101369.74
2023-05-10T21:11:43.177Z,101372.26
2023-05-10T21:14:11.705Z,101368.92
2023-05-10T21:16:39.982Z,101367.23
2023-05-10T21:19:08.678Z,101357.45
2023-05-10T21:21:36.760Z,101360.33
2023-05-10T21:24:04.980Z,101357.09
2023-05-10T21:26:33.050Z,101350.52
2023-05-10T21:29:01.071Z,101348.36
2023-05-10T21:31:29.606Z,101348.36
2023-05-10T21:33:58.473Z,101345.16
2023-05-10T21:36:26.649Z,101353.75
2023-05-10T21:38:54.856Z,101355.75
2023-05-10T21:41:23.212Z,101348.36
2023-05-10T21:43:51.288Z,101349.21
2023-05-10T21:46:19.441Z,101349.57
2023-05-10T21:48:47.597Z,101351.59
2023-05-10T21:51:15.927Z,101357.16
2023-05-10T21:53:44.208Z,101347.41
2023-05-10T21:56:12.447Z,101352.77
2023-05-10T21:58:40.434Z,101352.28
2023-05-10T22:01:08.578Z,101353.82
2023-05-10T22:03:36.630Z,101356.34
2023-05-10T22:06:05.021Z,101359.18
2023-05-10T22:08:33.072Z,101349.77
2023-05-10T22:11:01.104Z,101344.40
2023-05-10T22:13:29.183Z,101341.52
2023-05-10T22:15:57.148Z,101345.58
2023-05-10T22:18:25.237Z,101346.40
2023-05-10T22:20:53.218Z,101349.96
2023-05-10T22:23:21.304Z,101348.29
2023-05-10T22:25:49.347Z,101349.83
2023-05-10T22:28:17.421Z,101349.44
2023-05-10T22:30:45.461Z,101354.41
2023-05-10T22:33:13.452Z,101353.13
2023-05-10T22:35:41.516Z,101357.74
2023-05-10T22:38:09.506Z,101357.94
2023-05-10T22:40:37.571Z,101366.15
2023-05-10T22:43:05.764Z,101365.03
2023-05-10T22:45:33.826Z,101359.48
2023-05-10T22:48:02.053Z,101359.48
2023-05-10T22:50:30.625Z,101367.23
2023-05-10T22:52:58.595Z,101362.68
2023-05-10T22:55:26.555Z,101366.57
2023-05-10T22:57:54.653Z,101366.24
2023-05-10T23:00:22.801Z,101368.73
2023-05-10T23:02:50.934Z,101370.92
2023-05-10T23:05:19.254Z,101368.17
2023-05-10T23:07:49.724Z,101369.38
2023-05-10T23:10:18.108Z,101374.91
2023-05-10T23:12:46.346Z,101372.75
2023-05-10T23:15:14.440Z,101373.21
2023-05-10T23:17:42.715Z,101376.31
2023-05-10T23:20:11.390Z,101374.74
2023-05-10T23:22:39.493Z,101376.45
2023-05-10T23:25:08.290Z,101364.84
2023-05-10T23:27:36.304Z,101366.83
2023-05-10T23:30:04.415Z,101368.53
2023-05-10T23:32:32.445Z,101369.25
2023-05-10T23:35:00.496Z,101359.64
2023-05-10T23:37:29.248Z,101361.21
2023-05-10T23:39:57.289Z,101365.06
2023-05-10T23:42:25.356Z,101360.98
2023-05-10T23:44:53.882Z,101364.34
2023-05-10T23:47:21.962Z,101360.98
2023-05-10T23:49:51.456Z,101356.83
2023-05-10T23:52:19.618Z,101352.77
2023-05-10T23:54:47.587Z,101358.13
2023-05-10T23:57:15.836Z,101358.82
2023-05-10T23:59:43.940Z,101355.13
